Terminal Aerodrome Forecast
Issued by NWS Detroit/Pontiac, MI

Home | Current Version | Previous Version | Text Only | Print | Product List | Glossary On
Versions: 1 2 3 4 5 6 7 8 9 10 11 12 13 14 15 16 17 18 19 20 21 22 23 24 25 26 27 28 29 30 31
000
FTUS43 KDTX 242033 AAA
TAFDTW
TAF AMD
KDTW 242033Z 2421/2524 04005KT P6SM SKC
     FM250300 VRB03KT P6SM FEW100
     FM251400 12007KT P6SM SCT030
     FM251900 13008KT P6SM FEW035 SCT150=

USA.gov is the U.S. government's official web portal to all federal, state and local government web resources and services.